Brooklyn Heights, Ohio
Current Conditions -  °F | °C
As of 1:53 PM on Saturday 25 Oct 2014 (Local Time) from KBKL Reporting Station
Few Clouds Few Clouds  
Wind Chill: 63°   Ceiling: Unl
Heat Index: 63°   Visibility: 10mi
Dew Point: 55°   Wind: 12mph
Humidity: 75%   Direction: 270°W
Pressure: 29.78"   Gusts: NA
Location:  41.4454°N, 81.697°W
Report Text: KBKL 251753Z 27010KT 10SM FEW036 17/13 A2978 RMK AO2 SLP082 T01720128 10189 20122 56019
Loading
Personal Weather Stations






























Interactive Weather Map
Tropical Storm Tracking
New forecast layout! Learn more

10-Day Weather Forecast

Advertisements
Track Severe Weather on mobile